Thousand Springs, Nevada
Current Conditions -  °F | °C
As of 3:15 PM on Thursday 20 Nov 2014 (Local Time) from KENV Reporting Station
Clear Clear  
Wind Chill:   Ceiling: Unl
Heat Index:   Visibility: 10mi
Dew Point: -8°   Wind: 5mph
Humidity: 42%   Direction: 100°E
Pressure: 30.06"   Gusts: NA
Location:  41.0114°N, 114.57°W
Report Text: KENV 202315Z AUTO 10004KT 10SM CLR 04/M08 A3006 RMK AO1
Loading
Personal Weather Stations






























Interactive Weather Map New forecast layout! Learn more

10-Day Weather Forecast

Advertisements
Track Severe Weather on mobile